Time;durP1;ratioP1;P1;durP2;ratioP2;P2;SDS_P1;SDS_P2;PMS_P1;PMS_P2;Temp;Humidity;BMP_temperature;BMP_pressure;BME280_temperature;BME280_humidity;BME280_pressure;Samples;Min_cycle;Max_cycle;Signal;HPM_P1;HPM_P2
2021/12/10 00:00:52;;;;;;;34.97;20.95;;;5.50;77.90;;;;;;5058898;28;20037;-73
2021/12/10 00:03:32;;;;;;;36.33;19.73;;;5.50;77.90;;;;;;5057028;28;20053;-73
2021/12/10 00:06:06;;;;;;;32.55;20.73;;;5.50;77.90;;;;;;5054492;28;20056;-73
2021/12/10 00:08:34;;;;;;;35.13;21.90;;;5.50;77.80;;;;;;5058675;28;20037;-73
2021/12/10 00:11:08;;;;;;;35.72;20.45;;;5.50;77.80;;;;;;5058651;28;20516;-73
2021/12/10 00:13:34;;;;;;;33.70;20.30;;;5.50;77.70;;;;;;5053992;28;20049;-73
2021/12/10 00:16:00;;;;;;;29.55;19.25;;;5.60;77.70;;;;;;5054341;28;20040;-73
2021/12/10 00:18:32;;;;;;;34.40;21.23;;;5.60;77.70;;;;;;5055633;28;20094;-73
2021/12/10 00:21:00;;;;;;;28.98;19.08;;;5.50;77.60;;;;;;5054898;28;20059;-73
2021/12/10 00:23:29;;;;;;;31.55;18.13;;;5.60;77.60;;;;;;5055224;28;20044;-73
2021/12/10 00:25:55;;;;;;;34.45;20.00;;;5.60;77.50;;;;;;5055809;28;20155;-73
2021/12/10 00:28:32;;;;;;;28.40;17.50;;;5.60;77.40;;;;;;5054854;28;20123;-73
2021/12/10 00:31:15;;;;;;;28.67;15.82;;;5.60;77.30;;;;;;5056016;28;20048;-73
2021/12/10 00:33:51;;;;;;;29.05;18.08;;;5.60;77.10;;;;;;5053617;28;20040;-74
2021/12/10 00:36:17;;;;;;;27.05;16.67;;;5.60;77.00;;;;;;5054080;28;20060;-73
2021/12/10 00:38:43;;;;;;;26.40;17.13;;;5.60;76.80;;;;;;5054907;28;20080;-73
2021/12/10 00:41:09;;;;;;;27.27;16.30;;;5.60;76.70;;;;;;5055721;28;20448;-73
2021/12/10 00:43:36;;;;;;;25.70;16.63;;;5.60;76.60;;;;;;5054504;28;20029;-73
2021/12/10 00:46:02;;;;;;;28.95;15.45;;;5.50;76.80;;;;;;5055905;28;20041;-73
2021/12/10 00:48:28;;;;;;;22.60;14.35;;;5.60;76.40;;;;;;5053180;28;20148;-73
2021/12/10 00:50:57;;;;;;;25.92;15.23;;;5.60;76.40;;;;;;5054341;28;20135;-73
2021/12/10 00:53:23;;;;;;;30.52;16.80;;;5.50;76.20;;;;;;5055410;28;20047;-73
2021/12/10 00:55:49;;;;;;;26.65;15.98;;;5.50;76.20;;;;;;5053832;28;20060;-73
2021/12/10 00:58:16;;;;;;;24.65;15.52;;;5.50;76.10;;;;;;5053509;28;20045;-74
2021/12/10 01:00:46;;;;;;;25.17;16.27;;;5.50;76.10;;;;;;5055070;28;20037;-73
2021/12/10 01:03:15;;;;;;;24.40;15.05;;;5.40;76.00;;;;;;5043984;28;20049;-74
2021/12/10 01:05:43;;;;;;;24.48;15.32;;;5.40;76.00;;;;;;5055467;28;20048;-74
2021/12/10 01:08:09;;;;;;;26.70;15.45;;;5.40;76.00;;;;;;5054237;28;20102;-74
2021/12/10 01:10:49;;;;;;;27.10;14.95;;;5.30;75.90;;;;;;5055120;28;20123;-74
2021/12/10 01:13:19;;;;;;;26.55;14.45;;;5.40;76.00;;;;;;5055473;28;20416;-74
2021/12/10 01:16:12;;;;;;;27.00;15.02;;;5.30;76.00;;;;;;5055791;28;20419;-74
2021/12/10 01:24:35;;;;;;;21.30;12.65;;;5.20;76.20;;;;;;5053638;28;20076;-73
2021/12/10 01:27:11;;;;;;;23.73;12.70;;;5.20;76.20;;;;;;5053443;28;20049;-73
2021/12/10 01:29:41;;;;;;;27.40;13.52;;;5.20;76.20;;;;;;5052957;28;20033;-73
2021/12/10 01:32:11;;;;;;;22.00;12.55;;;5.20;76.20;;;;;;5054659;28;20052;-73
2021/12/10 01:34:38;;;;;;;23.02;12.70;;;5.20;76.20;;;;;;5053382;28;20080;-73
2021/12/10 01:37:05;;;;;;;25.20;13.68;;;5.20;76.30;;;;;;5053525;28;20045;-73
2021/12/10 01:39:34;;;;;;;22.00;12.75;;;5.20;76.30;;;;;;5052846;28;20057;-73
2021/12/10 01:42:14;;;;;;;19.98;11.57;;;5.30;76.40;;;;;;5054050;28;20128;-73
2021/12/10 01:44:45;;;;;;;19.55;12.40;;;5.20;76.30;;;;;;5036474;28;20495;-73
2021/12/10 01:47:13;;;;;;;21.83;12.68;;;5.30;76.40;;;;;;5054373;28;20128;-73
2021/12/10 01:49:40;;;;;;;23.83;12.45;;;5.30;76.40;;;;;;5054568;28;20053;-73
2021/12/10 01:52:07;;;;;;;22.27;12.85;;;5.30;76.40;;;;;;5054144;28;20069;-73
2021/12/10 01:54:40;;;;;;;27.45;12.85;;;5.30;76.30;;;;;;5053449;28;20048;-74
2021/12/10 01:57:07;;;;;;;20.80;13.40;;;5.30;76.40;;;;;;5054151;28;20052;-73
2021/12/10 01:59:35;;;;;;;22.15;12.90;;;5.30;76.40;;;;;;5053056;28;20049;-73
2021/12/10 02:02:07;;;;;;;21.50;12.63;;;5.30;76.30;;;;;;5052646;28;20052;-74
2021/12/10 02:04:34;;;;;;;18.55;13.35;;;5.30;76.30;;;;;;5053152;28;20048;-73
2021/12/10 02:07:01;;;;;;;20.23;13.20;;;5.30;76.30;;;;;;5054254;28;20049;-73
2021/12/10 02:09:27;;;;;;;27.58;14.13;;;5.30;76.30;;;;;;5053719;28;20033;-73
2021/12/10 02:11:53;;;;;;;23.45;13.45;;;5.40;76.40;;;;;;5052427;28;20037;-73
2021/12/10 02:14:20;;;;;;;26.17;14.13;;;5.30;76.40;;;;;;5053843;28;20044;-73
2021/12/10 02:16:48;;;;;;;24.45;13.15;;;5.30;76.40;;;;;;5053456;28;20102;-73
2021/12/10 02:19:15;;;;;;;19.50;12.80;;;5.30;76.30;;;;;;5052730;28;20472;-73
2021/12/10 02:21:41;;;;;;;22.25;13.43;;;5.30;76.20;;;;;;5053853;28;20466;-73
2021/12/10 02:24:09;;;;;;;22.92;14.40;;;5.40;76.20;;;;;;5053390;28;20123;-73
2021/12/10 02:26:47;;;;;;;19.17;12.95;;;5.30;76.00;;;;;;5053772;28;20112;-73
2021/12/10 02:29:15;;;;;;;24.83;13.20;;;5.40;76.00;;;;;;5052106;28;20373;-73
2021/12/10 02:31:40;;;;;;;23.52;13.55;;;5.40;75.90;;;;;;5053326;28;20072;-73
2021/12/10 02:34:08;;;;;;;23.52;13.98;;;5.30;75.80;;;;;;5053583;28;20110;-72
2021/12/10 02:36:34;;;;;;;24.10;13.98;;;5.40;75.80;;;;;;5052731;28;20048;-73
2021/12/10 02:39:00;;;;;;;20.38;12.27;;;5.30;75.70;;;;;;5053655;28;20128;-73
2021/12/10 02:41:31;;;;;;;20.00;12.32;;;5.30;75.70;;;;;;5052636;28;20123;-73
2021/12/10 02:43:59;;;;;;;20.77;13.30;;;5.30;75.70;;;;;;5051336;28;20115;-73
2021/12/10 02:46:25;;;;;;;19.40;11.30;;;5.30;75.70;;;;;;5052446;28;20064;-73
2021/12/10 02:48:51;;;;;;;21.38;12.55;;;5.40;75.60;;;;;;5052851;28;20044;-73
2021/12/10 02:51:17;;;;;;;21.05;12.63;;;5.40;75.50;;;;;;5053567;28;20408;-73
2021/12/10 02:53:45;;;;;;;20.92;12.20;;;5.40;75.30;;;;;;5052856;28;20495;-73
2021/12/10 02:56:14;;;;;;;20.20;11.48;;;5.40;75.20;;;;;;5042964;28;20045;-73
2021/12/10 02:58:41;;;;;;;20.13;10.85;;;5.40;74.90;;;;;;5053109;28;20389;-73
2021/12/10 03:01:12;;;;;;;17.35;10.77;;;5.40;74.80;;;;;;5052993;28;20033;-73
2021/12/10 03:03:40;;;;;;;22.30;11.13;;;5.40;74.70;;;;;;5051779;28;20060;-73
2021/12/10 03:06:10;;;;;;;19.77;10.90;;;5.30;74.60;;;;;;5051977;28;20064;-73
2021/12/10 03:08:42;;;;;;;19.05;10.63;;;5.40;74.60;;;;;;5053015;28;20115;-73
2021/12/10 03:11:08;;;;;;;18.23;10.90;;;5.30;74.40;;;;;;5051503;28;20072;-72
2021/12/10 03:13:34;;;;;;;21.63;11.95;;;5.30;74.30;;;;;;5053396;28;20041;-73
2021/12/10 03:16:00;;;;;;;18.83;10.65;;;5.30;74.40;;;;;;5053075;28;20120;-74
2021/12/10 03:18:26;;;;;;;22.15;10.57;;;5.30;74.40;;;;;;5051928;28;20115;-73
2021/12/10 03:20:52;;;;;;;17.85;10.35;;;5.30;74.30;;;;;;5053139;28;20473;-73
2021/12/10 03:23:18;;;;;;;18.00;10.10;;;5.30;74.10;;;;;;5053214;28;20068;-73
2021/12/10 03:25:44;;;;;;;22.38;10.98;;;5.30;74.10;;;;;;5053378;28;20070;-73
2021/12/10 03:28:11;;;;;;;17.10;10.25;;;5.30;74.00;;;;;;5034813;28;20088;-73
2021/12/10 03:30:49;;;;;;;20.75;10.70;;;5.20;73.90;;;;;;5052619;28;20123;-73
2021/12/10 03:33:16;;;;;;;14.75;9.65;;;5.20;73.80;;;;;;5052730;28;20040;-73
2021/12/10 03:35:45;;;;;;;18.70;10.00;;;5.20;73.70;;;;;;5053141;28;20037;-73
2021/12/10 03:38:17;;;;;;;21.00;10.15;;;5.20;73.70;;;;;;5053213;28;20037;-73
2021/12/10 03:40:44;;;;;;;16.60;9.77;;;5.20;73.80;;;;;;5052486;28;20051;-73
2021/12/10 03:43:11;;;;;;;13.00;9.25;;;5.10;73.60;;;;;;5052767;28;20037;-73
2021/12/10 03:45:43;;;;;;;18.80;10.30;;;5.10;73.60;;;;;;5053034;28;20033;-73
2021/12/10 03:48:15;;;;;;;15.77;10.38;;;5.00;73.60;;;;;;5053708;28;20045;-73
2021/12/10 03:50:42;;;;;;;14.85;9.25;;;5.00;73.70;;;;;;5055072;28;20116;-73
2021/12/10 03:53:08;;;;;;;14.88;9.95;;;5.00;73.70;;;;;;5056675;28;20049;-73
2021/12/10 03:55:35;;;;;;;14.13;9.98;;;4.90;73.60;;;;;;5056162;28;20078;-73
2021/12/10 03:58:01;;;;;;;15.70;9.50;;;4.80;73.50;;;;;;5056233;28;20049;-73
2021/12/10 04:00:30;;;;;;;15.82;9.68;;;4.80;73.50;;;;;;5056512;28;20060;-73
2021/12/10 04:02:56;;;;;;;16.45;9.38;;;4.80;73.60;;;;;;5050394;28;20048;-73
2021/12/10 04:05:22;;;;;;;15.45;9.23;;;4.70;73.60;;;;;;5056217;28;20094;-73
2021/12/10 04:07:49;;;;;;;16.17;9.07;;;4.70;73.50;;;;;;5056482;28;20480;-73
2021/12/10 04:10:16;;;;;;;19.73;10.05;;;4.70;73.60;;;;;;5056078;28;20045;-73
2021/12/10 04:12:41;;;;;;;12.90;8.77;;;4.60;73.50;;;;;;5055206;28;20044;-73
2021/12/10 04:15:09;;;;;;;16.13;9.55;;;4.50;73.40;;;;;;5055662;28;20040;-73
2021/12/10 04:17:37;;;;;;;15.88;9.68;;;4.50;73.50;;;;;;5056825;28;20044;-74
2021/12/10 04:20:05;;;;;;;18.45;10.20;;;4.40;74.00;;;;;;5038425;28;20052;-73
2021/12/10 04:22:32;;;;;;;16.98;10.52;;;4.40;73.60;;;;;;5056051;28;20084;-73
2021/12/10 04:25:00;;;;;;;16.95;9.63;;;4.30;73.70;;;;;;5054762;28;20076;-73
2021/12/10 04:27:26;;;;;;;17.42;10.32;;;4.30;73.80;;;;;;5054597;28;20052;-73
2021/12/10 04:29:56;;;;;;;20.20;10.35;;;4.30;74.00;;;;;;5054632;28;20045;-73
2021/12/10 04:32:23;;;;;;;15.30;10.52;;;4.20;74.00;;;;;;5054367;28;20041;-73
2021/12/10 04:34:49;;;;;;;16.80;10.65;;;4.20;74.10;;;;;;5054496;28;20045;-73
2021/12/10 04:37:15;;;;;;;17.70;10.75;;;4.10;74.10;;;;;;5054467;28;20500;-73
2021/12/10 04:39:46;;;;;;;19.83;11.30;;;4.10;74.10;;;;;;5037818;28;20092;-73
2021/12/10 04:42:14;;;;;;;20.20;11.02;;;4.10;74.20;;;;;;5055786;28;20068;-73
2021/12/10 04:44:40;;;;;;;17.73;10.75;;;4.00;74.30;;;;;;5055372;28;20124;-73
2021/12/10 04:47:06;;;;;;;19.17;11.95;;;4.00;74.40;;;;;;5054261;28;20129;-73
2021/12/10 04:49:31;;;;;;;22.02;10.98;;;3.90;74.50;;;;;;5055749;28;20112;-73
2021/12/10 04:51:58;;;;;;;20.52;11.65;;;3.90;74.50;;;;;;5055863;28;20144;-73
2021/12/10 04:54:25;;;;;;;17.88;10.70;;;3.90;74.70;;;;;;5053580;28;20041;-74
2021/12/10 04:56:54;;;;;;;20.33;11.57;;;3.80;74.70;;;;;;5055303;28;20060;-73
2021/12/10 04:59:21;;;;;;;18.90;11.70;;;3.80;74.80;;;;;;5053816;28;20040;-74
2021/12/10 05:01:48;;;;;;;23.25;13.05;;;3.80;74.90;;;;;;5054202;28;20083;-73
2021/12/10 05:04:15;;;;;;;23.23;13.02;;;3.70;75.10;;;;;;5055428;28;20162;-72
2021/12/10 05:06:42;;;;;;;21.73;12.85;;;3.70;75.30;;;;;;5055192;28;20052;-73
2021/12/10 05:09:10;;;;;;;21.70;13.75;;;3.60;75.30;;;;;;5053783;28;20492;-73
2021/12/10 05:11:36;;;;;;;20.48;14.27;;;3.60;75.30;;;;;;5039961;28;20053;-73
2021/12/10 05:14:03;;;;;;;25.08;14.23;;;3.60;75.50;;;;;;5053832;28;20048;-73
2021/12/10 05:16:29;;;;;;;21.48;14.77;;;3.60;75.60;;;;;;5054946;28;20489;-73
2021/12/10 05:18:59;;;;;;;20.75;13.57;;;3.50;75.60;;;;;;5054598;28;20043;-73
2021/12/10 05:21:28;;;;;;;24.92;14.43;;;3.50;75.70;;;;;;5055041;28;20041;-74
2021/12/10 05:23:54;;;;;;;22.98;14.40;;;3.50;75.80;;;;;;5053449;28;20073;-73
2021/12/10 05:26:20;;;;;;;23.52;14.10;;;3.50;75.90;;;;;;5054962;28;20538;-74
2021/12/10 05:28:45;;;;;;;19.83;14.45;;;3.40;75.90;;;;;;5055237;28;20056;-73
2021/12/10 05:31:12;;;;;;;21.88;14.00;;;3.40;75.90;;;;;;5054094;28;20049;-74
2021/12/10 05:33:37;;;;;;;23.38;14.70;;;3.40;76.00;;;;;;5053384;28;20079;-74
2021/12/10 05:36:04;;;;;;;21.70;13.70;;;3.40;76.20;;;;;;5054229;28;20045;-74
2021/12/10 05:38:31;;;;;;;23.73;13.93;;;3.40;76.20;;;;;;5052989;28;20162;-73
2021/12/10 05:40:58;;;;;;;21.85;13.68;;;3.30;76.20;;;;;;5052888;28;20559;-73
2021/12/10 05:43:24;;;;;;;21.38;14.07;;;3.30;76.30;;;;;;5053869;28;20059;-73
2021/12/10 05:45:51;;;;;;;19.85;14.07;;;3.30;76.30;;;;;;5056492;28;20044;-73
2021/12/10 05:48:18;;;;;;;18.88;13.10;;;3.30;76.40;;;;;;5054888;28;20040;-74
2021/12/10 05:50:44;;;;;;;21.35;14.07;;;3.30;76.40;;;;;;5054626;28;20078;-74
2021/12/10 05:53:10;;;;;;;20.92;13.73;;;3.30;76.40;;;;;;5054030;28;20049;-73
2021/12/10 05:55:37;;;;;;;20.50;12.80;;;3.30;76.50;;;;;;5054059;28;20102;-73
2021/12/10 05:58:04;;;;;;;20.50;13.07;;;3.30;76.50;;;;;;5054576;28;20041;-73
2021/12/10 06:00:33;;;;;;;21.75;12.70;;;3.20;76.90;;;;;;5053894;28;20059;-73
2021/12/10 06:03:01;;;;;;;19.77;12.20;;;3.20;76.40;;;;;;5053747;28;20052;-73
2021/12/10 06:05:28;;;;;;;17.52;11.60;;;3.20;76.40;;;;;;5053703;28;20044;-73
2021/12/10 06:07:54;;;;;;;20.92;12.30;;;3.20;76.40;;;;;;5053596;28;20145;-73
2021/12/10 06:10:22;;;;;;;18.33;11.82;;;3.20;76.40;;;;;;5052981;28;20535;-77
2021/12/10 06:12:49;;;;;;;20.73;12.48;;;3.20;76.40;;;;;;5054268;28;20051;-74
2021/12/10 06:15:18;;;;;;;19.40;11.40;;;3.20;76.40;;;;;;5051850;28;20116;-73
2021/12/10 06:17:44;;;;;;;17.50;11.88;;;3.20;76.80;;;;;;5053525;28;20487;-72
2021/12/10 06:20:13;;;;;;;18.13;11.40;;;3.20;76.30;;;;;;5053583;28;20045;-74
2021/12/10 06:22:38;;;;;;;17.67;11.70;;;3.20;76.30;;;;;;5043059;28;20081;-73
2021/12/10 06:25:07;;;;;;;19.45;11.90;;;3.20;76.30;;;;;;5050685;28;20057;-73
2021/12/10 06:27:33;;;;;;;14.95;10.77;;;3.10;76.20;;;;;;5051801;28;20075;-74
2021/12/10 06:30:01;;;;;;;18.13;11.80;;;3.10;76.20;;;;;;5035606;28;20056;-73
2021/12/10 06:32:27;;;;;;;25.58;12.68;;;3.10;76.10;;;;;;5053163;28;20036;-73
2021/12/10 06:34:53;;;;;;;18.38;11.57;;;3.10;76.10;;;;;;5051335;28;20063;-80
2021/12/10 06:37:18;;;;;;;17.10;11.50;;;3.10;76.10;;;;;;5052491;28;20076;-78
2021/12/10 06:39:44;;;;;;;15.90;10.90;;;3.10;76.20;;;;;;5052940;28;20072;-79
2021/12/10 06:42:10;;;;;;;15.93;10.98;;;3.10;76.20;;;;;;5053456;28;20378;-79
2021/12/10 06:44:36;;;;;;;17.03;11.17;;;3.10;76.20;;;;;;5053256;28;20048;-78
2021/12/10 06:47:05;;;;;;;17.87;11.30;;;3.10;76.10;;;;;;5051462;28;20036;-79
2021/12/10 06:49:32;;;;;;;16.80;10.30;;;3.10;76.10;;;;;;5053770;28;20063;-79
2021/12/10 06:51:58;;;;;;;19.20;11.02;;;3.00;76.00;;;;;;5053336;28;20045;-80
2021/12/10 06:54:23;;;;;;;14.27;9.40;;;3.00;76.00;;;;;;5053019;28;20529;-80
2021/12/10 06:56:50;;;;;;;18.65;10.43;;;3.00;75.90;;;;;;5052703;28;20052;-79
2021/12/10 06:59:16;;;;;;;18.05;10.75;;;3.00;76.00;;;;;;5053163;28;20064;-79
2021/12/10 07:01:43;;;;;;;16.48;10.18;;;3.00;75.90;;;;;;5053304;28;20036;-80
2021/12/10 07:04:11;;;;;;;14.57;9.02;;;3.00;75.80;;;;;;5053785;28;20053;-80
2021/12/10 07:06:39;;;;;;;14.48;9.77;;;3.00;75.80;;;;;;5052126;28;20052;-80
2021/12/10 07:09:17;;;;;;;14.15;10.07;;;3.00;75.80;;;;;;5053407;28;20493;-81
2021/12/10 07:11:44;;;;;;;17.15;10.50;;;3.00;75.80;;;;;;5053120;28;20484;-80
2021/12/10 07:14:10;;;;;;;13.93;9.73;;;3.00;75.70;;;;;;5053799;28;20049;-81
2021/12/10 07:16:36;;;;;;;18.30;9.47;;;3.00;75.60;;;;;;5053477;28;20087;-81
2021/12/10 07:19:04;;;;;;;14.35;9.45;;;3.00;75.60;;;;;;5053713;28;20037;-80
2021/12/10 07:21:32;;;;;;;15.30;9.68;;;2.90;75.50;;;;;;5053734;28;20123;-80
2021/12/10 07:24:01;;;;;;;14.37;9.13;;;2.90;75.50;;;;;;5057525;28;20040;-80
2021/12/10 07:26:28;;;;;;;12.15;8.35;;;2.90;75.50;;;;;;5057168;28;20052;-80
2021/12/10 07:28:55;;;;;;;18.23;8.90;;;2.90;75.40;;;;;;5036610;28;20139;-80
2021/12/10 07:31:20;;;;;;;13.27;9.07;;;2.90;75.40;;;;;;5037556;28;20048;-80
2021/12/10 07:33:46;;;;;;;11.05;8.27;;;2.90;75.30;;;;;;5057316;28;20474;-80
2021/12/10 07:36:15;;;;;;;13.60;8.73;;;2.90;75.30;;;;;;5056979;28;20124;-80
2021/12/10 07:38:40;;;;;;;14.35;8.82;;;2.90;75.30;;;;;;5056270;28;20053;-80
2021/12/10 07:41:07;;;;;;;15.57;8.60;;;2.90;75.30;;;;;;5057310;28;20083;-80
2021/12/10 07:43:33;;;;;;;11.93;8.35;;;2.80;75.20;;;;;;5056882;28;20052;-80
2021/12/10 07:45:59;;;;;;;13.00;8.23;;;3.00;75.40;;;;;;5055892;28;20053;-80
2021/12/10 07:48:27;;;;;;;13.80;9.20;;;2.80;75.20;;;;;;5056905;28;20177;-80
2021/12/10 07:51:10;;;;;;;11.67;8.57;;;2.80;75.20;;;;;;5055850;28;20101;-80
2021/12/10 07:53:37;;;;;;;13.33;8.43;;;2.80;75.20;;;;;;5056658;28;20037;-80
2021/12/10 07:56:08;;;;;;;15.18;8.40;;;2.80;75.20;;;;;;5057149;28;20040;-80
2021/12/10 07:58:34;;;;;;;13.70;7.65;;;2.80;75.20;;;;;;5054437;28;20041;-80
2021/12/10 08:01:07;;;;;;;14.77;7.93;;;2.70;75.20;;;;;;5056150;28;20076;-80
2021/12/10 08:03:32;;;;;;;10.80;7.30;;;2.80;75.30;;;;;;5055966;28;20061;-81
2021/12/10 08:05:58;;;;;;;10.93;7.27;;;2.80;75.30;;;;;;5056513;28;20055;-80
2021/12/10 08:08:24;;;;;;;13.73;7.07;;;2.70;75.20;;;;;;5054934;28;20075;-81
2021/12/10 08:10:49;;;;;;;16.13;9.38;;;2.80;75.30;;;;;;5056598;28;20095;-79
2021/12/10 08:13:21;;;;;;;10.70;7.80;;;2.80;75.20;;;;;;5054611;28;20516;-80
2021/12/10 08:15:48;;;;;;;12.97;7.87;;;2.70;75.20;;;;;;5056393;28;20055;-80
2021/12/10 08:18:13;;;;;;;11.80;8.30;;;2.70;75.20;;;;;;5055053;28;20037;-79
2021/12/10 08:20:39;;;;;;;12.20;7.53;;;2.70;75.30;;;;;;5054895;28;20503;-79
2021/12/10 08:23:06;;;;;;;13.35;7.30;;;2.70;75.30;;;;;;5054897;28;20087;-78
2021/12/10 08:25:32;;;;;;;10.90;6.70;;;2.70;75.30;;;;;;5056178;28;20048;-79
2021/12/10 08:27:58;;;;;;;12.07;7.22;;;2.70;75.20;;;;;;5052951;28;20488;-80
2021/12/10 08:30:26;;;;;;;12.67;7.30;;;2.80;75.20;;;;;;5055789;28;20033;-80
2021/12/10 08:32:55;;;;;;;11.15;7.43;;;2.70;75.20;;;;;;5055929;28;20040;-80
2021/12/10 08:35:23;;;;;;;12.15;7.15;;;2.80;75.20;;;;;;5054966;28;20041;-74
2021/12/10 08:37:51;;;;;;;10.47;7.37;;;2.80;75.20;;;;;;5055918;28;20044;-74
2021/12/10 08:40:23;;;;;;;12.63;7.55;;;2.80;75.20;;;;;;5055572;28;20045;-74
2021/12/10 08:42:50;;;;;;;10.60;7.30;;;2.80;75.20;;;;;;5055994;28;20045;-75
2021/12/10 08:45:19;;;;;;;18.20;10.52;;;2.80;75.20;;;;;;5056107;28;20060;-74
2021/12/10 08:47:46;;;;;;;16.87;10.67;;;2.80;75.10;;;;;;5055864;28;20048;-74
2021/12/10 08:50:12;;;;;;;13.40;7.70;;;2.80;75.10;;;;;;5055701;28;20119;-75
2021/12/10 08:52:38;;;;;;;14.23;8.40;;;2.70;75.00;;;;;;5054836;28;21099;-74
2021/12/10 08:55:07;;;;;;;11.60;7.40;;;2.80;75.10;;;;;;5054568;28;20053;-74
2021/12/10 08:57:33;;;;;;;14.82;8.68;;;2.70;75.10;;;;;;5054389;28;20065;-74
2021/12/10 08:59:59;;;;;;;10.87;7.20;;;2.80;75.20;;;;;;5055518;28;20068;-74
2021/12/10 09:02:25;;;;;;;13.75;8.35;;;2.80;75.20;;;;;;5055489;28;20060;-74
2021/12/10 09:04:51;;;;;;;14.53;8.73;;;2.80;75.20;;;;;;5055217;28;20055;-74
2021/12/10 09:07:19;;;;;;;17.50;7.93;;;2.80;75.20;;;;;;5054368;28;20356;-74
2021/12/10 09:09:46;;;;;;;12.60;7.30;;;2.80;75.30;;;;;;5053891;28;20049;-74
2021/12/10 09:12:22;;;;;;;11.77;7.87;;;2.80;75.20;;;;;;5055490;28;20041;-74
2021/12/10 09:14:51;;;;;;;12.52;7.13;;;2.90;75.30;;;;;;5055451;28;20035;-74
2021/12/10 09:17:24;;;;;;;11.00;7.18;;;2.90;75.30;;;;;;5054442;28;20499;-74
2021/12/10 09:19:52;;;;;;;10.77;7.05;;;2.90;75.30;;;;;;5053746;28;20068;-74
2021/12/10 09:22:19;;;;;;;9.77;6.70;;;2.90;75.30;;;;;;5055320;28;20052;-73
2021/12/10 09:24:46;;;;;;;13.65;7.45;;;3.00;75.30;;;;;;5055337;28;20392;-74
2021/12/10 09:27:13;;;;;;;12.50;7.03;;;3.00;75.60;;;;;;5055328;28;20041;-74
2021/12/10 09:29:41;;;;;;;11.63;6.55;;;3.00;75.20;;;;;;5054977;28;20041;-74
2021/12/10 09:32:10;;;;;;;13.82;6.80;;;3.10;75.30;;;;;;5054433;28;20515;-73
2021/12/10 09:34:36;;;;;;;9.57;6.53;;;3.10;75.20;;;;;;5054656;28;20076;-74
2021/12/10 09:37:03;;;;;;;13.07;6.63;;;3.20;75.10;;;;;;5054169;28;20083;-74
2021/12/10 09:39:30;;;;;;;13.70;7.85;;;3.20;75.00;;;;;;5053473;28;20047;-75
2021/12/10 09:41:56;;;;;;;12.07;7.47;;;3.30;74.90;;;;;;5054947;28;20404;-75
2021/12/10 09:44:23;;;;;;;12.27;6.32;;;3.40;74.80;;;;;;5053349;28;20048;-75
2021/12/10 09:46:52;;;;;;;9.68;6.13;;;3.40;74.60;;;;;;5052918;28;20045;-73
2021/12/10 09:49:19;;;;;;;12.57;6.32;;;3.50;74.50;;;;;;5054563;28;20376;-73
2021/12/10 09:51:49;;;;;;;10.25;5.68;;;3.60;74.50;;;;;;5055030;28;20083;-73
2021/12/10 09:54:18;;;;;;;8.32;5.47;;;3.60;74.30;;;;;;5054507;28;20029;-73
2021/12/10 09:56:56;;;;;;;7.88;5.40;;;3.70;74.10;;;;;;5053372;28;20056;-74
2021/12/10 09:59:22;;;;;;;11.60;5.75;;;3.80;73.90;;;;;;5053206;28;20041;-74
2021/12/10 10:01:52;;;;;;;10.38;5.15;;;3.80;73.80;;;;;;5054528;28;20128;-74
2021/12/10 10:04:20;;;;;;;9.82;5.25;;;3.90;73.70;;;;;;5054341;28;20040;-74
2021/12/10 10:07:12;;;;;;;8.85;5.53;;;3.90;73.40;;;;;;5054566;28;20095;-74
2021/12/10 10:09:41;;;;;;;8.75;5.65;;;4.00;73.00;;;;;;5054406;28;20124;-74
2021/12/10 10:12:11;;;;;;;9.95;5.07;;;4.10;73.10;;;;;;5053050;28;20041;-73
2021/12/10 10:14:38;;;;;;;12.32;5.28;;;4.10;73.00;;;;;;5054468;28;20473;-74
2021/12/10 10:17:05;;;;;;;10.38;5.00;;;4.20;73.00;;;;;;5054510;28;20056;-73
2021/12/10 10:19:31;;;;;;;8.68;4.80;;;4.20;72.60;;;;;;5054336;28;20033;-73
2021/12/10 10:21:58;;;;;;;7.53;4.95;;;4.30;72.30;;;;;;5061039;28;20049;-74
2021/12/10 10:24:28;;;;;;;8.77;4.18;;;4.40;72.10;;;;;;5059965;28;20052;-74
2021/12/10 10:27:06;;;;;;;7.50;4.18;;;4.50;71.80;;;;;;5060259;28;20396;-73
2021/12/10 10:29:36;;;;;;;8.65;4.65;;;4.50;71.30;;;;;;5054052;28;20152;-73
2021/12/10 10:32:15;;;;;;;8.20;4.30;;;4.50;71.50;;;;;;5053082;28;20067;-73
2021/12/10 10:35:04;;;;;;;8.55;4.13;;;4.60;71.50;;;;;;5053778;28;20049;-73
2021/12/10 10:37:31;;;;;;;7.88;3.95;;;4.60;71.30;;;;;;5053965;28;20049;-74
2021/12/10 10:39:58;;;;;;;7.20;4.05;;;4.70;70.80;;;;;;5052543;28;20037;-73
2021/12/10 10:42:27;;;;;;;9.15;4.22;;;4.70;70.60;;;;;;5054130;28;20040;-74
2021/12/10 10:44:56;;;;;;;7.07;4.47;;;4.80;70.90;;;;;;5053818;28;20124;-74
2021/12/10 10:47:23;;;;;;;8.50;4.07;;;4.80;70.90;;;;;;5053994;28;20063;-74
2021/12/10 10:50:11;;;;;;;6.35;3.40;;;4.90;70.90;;;;;;5052115;28;20053;-73
2021/12/10 10:52:39;;;;;;;7.72;3.58;;;4.90;70.30;;;;;;5054057;28;20041;-74
2021/12/10 10:55:10;;;;;;;9.80;4.35;;;5.00;70.40;;;;;;5052438;28;20045;-75
2021/12/10 10:57:40;;;;;;;7.63;3.90;;;5.00;69.90;;;;;;5052725;28;20052;-74
2021/12/10 11:00:19;;;;;;;9.93;4.70;;;5.00;69.80;;;;;;5052068;28;20049;-74
2021/12/10 11:02:52;;;;;;;9.00;4.05;;;5.10;69.60;;;;;;5051485;28;20407;-74
2021/12/10 11:05:20;;;;;;;10.77;3.67;;;5.10;69.30;;;;;;5052178;28;20090;-75
2021/12/10 11:07:51;;;;;;;7.32;4.22;;;5.20;69.10;;;;;;5053815;28;20115;-74
2021/12/10 11:10:39;;;;;;;15.43;4.38;;;5.20;68.70;;;;;;5053368;28;20041;-74
2021/12/10 11:13:25;;;;;;;9.50;3.70;;;5.20;68.60;;;;;;5052621;28;20048;-74
2021/12/10 11:16:13;;;;;;;8.73;3.35;;;5.20;68.20;;;;;;5053491;28;20045;-74
2021/12/10 11:18:45;;;;;;;8.07;3.25;;;5.20;68.10;;;;;;5052176;28;20397;-74
2021/12/10 11:21:11;;;;;;;6.97;3.28;;;5.20;68.10;;;;;;5052420;28;20373;-74
2021/12/10 11:23:39;;;;;;;10.35;3.50;;;5.30;68.00;;;;;;5053448;28;20041;-74
2021/12/10 11:26:06;;;;;;;6.22;3.55;;;5.40;67.90;;;;;;5053518;28;20084;-74
2021/12/10 11:28:36;;;;;;;9.05;3.78;;;5.30;67.60;;;;;;5042577;28;20425;-75
2021/12/10 11:31:15;;;;;;;8.60;4.00;;;5.30;67.70;;;;;;5053224;28;20450;-74
2021/12/10 11:33:48;;;;;;;9.07;3.42;;;5.30;67.20;;;;;;5051920;28;20100;-74
2021/12/10 11:36:23;;;;;;;9.53;4.10;;;5.30;67.30;;;;;;5053156;28;20025;-74
2021/12/10 11:38:54;;;;;;;;;;;5.30;67.70;;;;;;5052470;28;20045;-74
2021/12/10 11:41:23;;;;;;;6.75;3.33;;;5.30;67.90;;;;;;5051932;28;20363;-74
2021/12/10 11:44:19;;;;;;;11.68;3.78;;;5.30;68.00;;;;;;5052431;28;20088;-74
2021/12/10 11:49:38;;;;;;;5.05;3.60;;;5.30;67.90;;;;;;5051903;28;20049;-75
2021/12/10 11:52:09;;;;;;;7.30;3.97;;;5.30;67.70;;;;;;5053019;28;20496;-74
2021/12/10 11:54:51;;;;;;;7.07;3.20;;;5.30;67.40;;;;;;5053161;28;20423;-74
2021/12/10 11:57:35;;;;;;;7.35;4.03;;;5.30;67.40;;;;;;5052865;28;20555;-74
2021/12/10 12:00:08;;;;;;;7.88;3.67;;;5.30;67.60;;;;;;5053370;28;20123;-74
2021/12/10 12:02:44;;;;;;;7.53;3.55;;;5.30;67.80;;;;;;5052712;28;20377;-75
2021/12/10 12:05:14;;;;;;;10.63;4.40;;;5.30;67.70;;;;;;5053390;28;20049;-74
2021/12/10 12:07:46;;;;;;;7.65;3.22;;;5.30;67.60;;;;;;5052894;28;20052;-74
2021/12/10 12:10:31;;;;;;;9.27;3.35;;;5.20;67.30;;;;;;5056258;28;20045;-74
2021/12/10 12:13:02;;;;;;;7.57;3.80;;;5.30;67.30;;;;;;5056424;28;20052;-75
2021/12/10 12:15:34;;;;;;;7.07;3.50;;;5.30;67.40;;;;;;5055771;28;20454;-74
2021/12/10 12:18:14;;;;;;;7.15;3.33;;;5.30;67.30;;;;;;5056161;28;20049;-74
2021/12/10 12:20:44;;;;;;;8.65;3.63;;;5.30;67.20;;;;;;5056521;28;20423;-74
2021/12/10 12:26:26;;;;;;;11.05;4.00;;;5.30;67.10;;;;;;5056179;28;20381;-74
2021/12/10 12:29:04;;;;;;;10.15;3.72;;;5.20;67.40;;;;;;5055916;28;20040;-74
2021/12/10 12:31:41;;;;;;;8.07;3.92;;;5.30;67.30;;;;;;5056295;28;20049;-75
2021/12/10 12:34:20;;;;;;;6.47;3.22;;;5.30;67.20;;;;;;5054412;28;20522;-75
2021/12/10 12:36:51;;;;;;;12.57;4.15;;;5.30;67.20;;;;;;5055091;28;20128;-74
2021/12/10 12:39:42;;;;;;;7.43;3.10;;;5.30;67.30;;;;;;5056055;28;20476;-74
2021/12/10 12:42:29;;;;;;;8.32;3.40;;;5.30;67.10;;;;;;5055799;28;20472;-74
2021/12/10 12:45:24;;;;;;;5.03;2.88;;;5.20;67.10;;;;;;5054988;28;20384;-75
2021/12/10 12:47:54;;;;;;;7.70;2.88;;;5.30;67.10;;;;;;5038066;28;20063;-74
2021/12/10 12:50:30;;;;;;;7.75;3.05;;;5.30;67.20;;;;;;5056154;28;20045;-75
2021/12/10 12:53:03;;;;;;;7.57;3.00;;;5.30;67.10;;;;;;5055549;28;20076;-75
2021/12/10 12:55:40;;;;;;;9.00;2.97;;;5.30;67.30;;;;;;5054880;28;20037;-75
2021/12/10 12:58:18;;;;;;;7.93;3.15;;;5.30;67.30;;;;;;5054153;28;20059;-74
2021/12/10 13:01:09;;;;;;;5.82;2.60;;;5.30;67.30;;;;;;5054521;28;20057;-75
2021/12/10 13:03:52;;;;;;;8.45;3.22;;;5.30;67.40;;;;;;5054129;28;20049;-75
2021/12/10 13:06:27;;;;;;;5.35;2.63;;;5.30;67.30;;;;;;5054586;28;20534;-75